RKSS

Gimpo International Airport

Airport
ICAO code
RKSS
IATA Code
GMP
Summary
ICAO Region
APAC
ICAO Territory
Location

Seoul, Seoul National Capital Area

Serving
Seoul
Elevation
58 ft
Coordinates
37° 33' 30" N , 126° 47' 30" E
KCC
Metar
Observation
RKSS 060300Z 03003KT 180V340 9999 SCT035 BKN160 18/11 Q1020 NOSIG
Station
Seoul / Kimp'O International Airport
Date/Time
2022-10-06 03:00:00
Wind direction
30°
Wind speed
03 kts
Lowest cloud amount
scattered clouds
Temperature
18°C
Dew point
11°C
Humidity
63%
QNH
1020 hPa
Weather condition
n/a

An international airport serving Seoul, South Korea but note that the main airport is Incheon.

Climatology

Warm continental climate/Humid continental climate/Humid subtropical climate (Köppen climate classification Dwa/Cwa)

Runways

Designator Length Width Surface Rops
14R/32L 3200 60 ASP Yes/Yes
14L/32R 3600 45 ASP Yes/Yes

Airport map

Aerial View

SKYbrary Partners:

Safety knowledge contributed by: